createdAt,value
2019-06-04T00:00:07.884Z,8.00
2019-06-04T00:01:24.436Z,8.00
2019-06-04T00:02:07.875Z,8.00
2019-06-04T00:03:07.872Z,8.00
2019-06-04T00:04:07.880Z,8.00
2019-06-04T00:05:07.876Z,8.00
2019-06-04T00:06:07.879Z,8.00
2019-06-04T00:07:07.879Z,8.00
2019-06-04T00:08:07.883Z,8.00
2019-06-04T00:09:07.882Z,8.00
2019-06-04T00:10:07.893Z,8.00
2019-06-04T00:11:07.886Z,8.00
2019-06-04T00:12:07.884Z,8.00
2019-06-04T00:13:07.890Z,8.00
2019-06-04T00:14:07.891Z,8.00
2019-06-04T00:15:07.898Z,8.00
2019-06-04T00:16:07.900Z,8.00
2019-06-04T00:17:07.908Z,8.00
2019-06-04T00:18:07.896Z,8.00
2019-06-04T00:19:07.897Z,8.00
2019-06-04T00:20:07.899Z,8.00
2019-06-04T00:21:07.904Z,8.00
2019-06-04T00:22:07.918Z,8.00
2019-06-04T00:23:07.905Z,8.00
2019-06-04T00:24:07.914Z,8.00
2019-06-04T00:25:07.910Z,8.00
2019-06-04T00:26:09.647Z,8.00
2019-06-04T00:27:07.916Z,8.00
2019-06-04T00:28:07.913Z,8.00
2019-06-04T00:29:08.371Z,8.00
2019-06-04T00:30:08.481Z,8.00
2019-06-04T00:31:08.526Z,8.00
2019-06-04T00:32:08.242Z,8.00
2019-06-04T00:33:08.323Z,8.00
2019-06-04T00:34:09.233Z,8.00
2019-06-04T00:35:08.834Z,8.00
2019-06-04T00:36:09.027Z,8.00
2019-06-04T00:37:08.449Z,8.00
2019-06-04T00:38:08.961Z,8.00
2019-06-04T00:39:08.875Z,8.00
2019-06-04T00:40:08.795Z,8.00
2019-06-04T00:41:09.111Z,8.00
2019-06-04T00:42:08.923Z,8.00
2019-06-04T00:43:09.559Z,8.00
2019-06-04T00:44:09.151Z,8.00
2019-06-04T00:45:08.944Z,8.00
2019-06-04T00:46:09.044Z,8.00
2019-06-04T00:47:09.357Z,8.00
2019-06-04T00:48:09.348Z,8.00
2019-06-04T00:49:09.106Z,8.00
2019-06-04T00:50:09.208Z,8.00
2019-06-04T00:51:09.806Z,8.00
2019-06-04T00:52:09.106Z,8.00
2019-06-04T00:53:09.380Z,8.00
2019-06-04T00:54:09.143Z,8.00
2019-06-04T00:55:07.946Z,8.00
2019-06-04T00:56:08.602Z,8.00
2019-06-04T00:57:08.402Z,8.00
2019-06-04T00:58:08.713Z,8.00
2019-06-04T00:59:07.963Z,8.00
2019-06-04T01:00:08.939Z,8.00
2019-06-04T01:01:08.057Z,8.00
2019-06-04T01:02:09.022Z,8.00
2019-06-04T01:03:08.147Z,8.00
2019-06-04T01:04:14.277Z,8.00
2019-06-04T01:05:08.262Z,8.00
2019-06-04T01:06:08.202Z,8.00
2019-06-04T01:07:07.962Z,8.00
2019-06-04T01:08:20.730Z,8.00
2019-06-04T01:09:07.964Z,8.00
2019-06-04T01:10:07.963Z,8.00
2019-06-04T01:11:08.148Z,8.00
2019-06-04T01:12:08.147Z,8.00
2019-06-04T01:13:14.747Z,8.00
2019-06-04T01:14:08.554Z,8.00
2019-06-04T01:15:24.669Z,8.00
2019-06-04T01:16:08.526Z,8.00
2019-06-04T01:17:08.639Z,8.00
2019-06-04T01:18:08.793Z,8.00
2019-06-04T01:19:08.946Z,8.00
2019-06-04T01:20:08.860Z,8.00
2019-06-04T01:21:09.206Z,8.00
2019-06-04T01:22:09.098Z,8.00
2019-06-04T01:23:09.476Z,8.00
2019-06-04T01:24:09.351Z,8.00
2019-06-04T01:25:07.978Z,8.00
2019-06-04T01:26:07.988Z,8.00
2019-06-04T01:27:07.979Z,8.00
2019-06-04T01:28:09.936Z,8.00
2019-06-04T01:29:08.141Z,8.00
2019-06-04T01:30:08.069Z,8.00
2019-06-04T01:31:08.512Z,8.00
2019-06-04T01:32:20.287Z,8.00
2019-06-04T01:33:08.395Z,8.00
2019-06-04T01:34:08.391Z,8.00
2019-06-04T01:35:08.385Z,8.00
2019-06-04T01:36:08.706Z,8.00
2019-06-04T01:37:08.558Z,8.00
2019-06-04T01:38:08.860Z,8.00
2019-06-04T01:39:08.908Z,8.00
2019-06-04T01:40:09.321Z,8.00
2019-06-04T01:41:09.285Z,8.00
2019-06-04T01:42:08.969Z,8.00
2019-06-04T01:43:09.274Z,8.00
2019-06-04T01:44:09.420Z,8.00
2019-06-04T01:45:07.996Z,8.00
2019-06-04T01:46:08.002Z,8.00
2019-06-04T01:47:07.998Z,8.00
2019-06-04T01:48:08.119Z,8.00
2019-06-04T01:49:08.979Z,8.00
2019-06-04T01:50:08.279Z,8.00
2019-06-04T01:51:08.457Z,8.00
2019-06-04T01:52:08.214Z,8.00
2019-06-04T01:53:08.574Z,8.00
2019-06-04T01:54:08.397Z,8.00
2019-06-04T01:55:08.662Z,8.00
2019-06-04T01:56:08.773Z,8.00
2019-06-04T01:57:08.703Z,8.00
2019-06-04T01:58:10.221Z,8.00
2019-06-04T01:59:09.013Z,8.00
2019-06-04T02:00:16.813Z,8.00
2019-06-04T02:01:09.256Z,8.00
2019-06-04T02:02:09.299Z,8.00
2019-06-04T02:03:09.370Z,8.00
2019-06-04T02:04:08.004Z,8.00
2019-06-04T02:05:08.397Z,8.00
2019-06-04T02:06:08.008Z,8.00
2019-06-04T02:07:08.006Z,8.00
2019-06-04T02:08:08.853Z,8.00
2019-06-04T02:09:08.270Z,8.00
2019-06-04T02:10:09.649Z,8.00
2019-06-04T02:11:08.429Z,8.00
2019-06-04T02:12:13.202Z,8.00
2019-06-04T02:13:08.639Z,8.00
2019-06-04T02:14:08.803Z,8.00
2019-06-04T02:15:09.240Z,8.00
2019-06-04T02:16:15.974Z,8.00
2019-06-04T02:17:08.012Z,8.00
2019-06-04T02:18:08.191Z,8.00
2019-06-04T02:19:08.013Z,8.00
2019-06-04T02:20:08.128Z,8.00
2019-06-04T02:21:08.162Z,8.00
2019-06-04T02:22:08.042Z,8.00
2019-06-04T02:23:08.464Z,8.00
2019-06-04T02:24:08.016Z,8.00
2019-06-04T02:25:08.191Z,4.00
2019-06-04T02:26:08.464Z,4.00
2019-06-04T02:27:08.249Z,8.00
2019-06-04T02:28:08.522Z,8.00
2019-06-04T02:29:08.276Z,8.00
2019-06-04T02:30:10.282Z,8.00
2019-06-04T02:31:08.475Z,8.00
2019-06-04T02:32:08.639Z,8.00
2019-06-04T02:33:13.746Z,8.00
2019-06-04T02:34:08.720Z,8.00
2019-06-04T02:35:08.655Z,8.00
2019-06-04T02:36:08.892Z,12.00
2019-06-04T02:37:08.684Z,8.00
2019-06-04T02:38:08.842Z,8.00
2019-06-04T02:39:08.093Z,4.00
2019-06-04T02:40:08.894Z,4.00
2019-06-04T02:41:08.227Z,8.00
2019-06-04T02:42:09.054Z,4.00
2019-06-04T02:43:08.299Z,8.00
2019-06-04T02:44:09.267Z,8.00
2019-06-04T02:45:08.267Z,12.00
2019-06-04T02:46:08.853Z,8.00
2019-06-04T02:47:08.474Z,12.00
2019-06-04T02:48:08.031Z,16.00
2019-06-04T02:49:08.888Z,16.00
2019-06-04T02:50:08.157Z,16.00
2019-06-04T02:51:08.947Z,20.00
2019-06-04T02:52:09.005Z,20.00
2019-06-04T02:53:09.244Z,24.00
2019-06-04T02:54:09.423Z,24.00
2019-06-04T02:55:08.023Z,28.00
2019-06-04T02:56:08.143Z,28.00
2019-06-04T02:57:08.024Z,32.00
2019-06-04T02:58:08.064Z,32.00
2019-06-04T02:59:08.154Z,36.00
2019-06-04T03:00:08.292Z,40.00
2019-06-04T03:01:09.030Z,40.00
2019-06-04T03:02:08.505Z,40.00
2019-06-04T03:03:22.382Z,44.00
2019-06-04T03:04:08.550Z,48.00
2019-06-04T03:05:08.595Z,52.00
2019-06-04T03:06:09.030Z,52.00
2019-06-04T03:07:09.108Z,56.00
2019-06-04T03:08:08.946Z,64.00
2019-06-04T03:09:09.197Z,68.00
2019-06-04T03:10:09.022Z,76.00
2019-06-04T03:11:09.410Z,80.00
2019-06-04T03:12:09.207Z,84.00
2019-06-04T03:13:09.399Z,92.00
2019-06-04T03:14:09.473Z,100.00
2019-06-04T03:15:08.028Z,104.00
2019-06-04T03:16:08.023Z,116.00
2019-06-04T03:17:08.028Z,124.00
2019-06-04T03:18:35.778Z,136.00
2019-06-04T03:19:08.026Z,140.00
2019-06-04T03:20:08.025Z,148.00
2019-06-04T03:21:08.029Z,160.00
2019-06-04T03:22:08.026Z,172.00
2019-06-04T03:23:08.024Z,180.00
2019-06-04T03:24:08.025Z,192.00
2019-06-04T03:25:08.039Z,204.00
2019-06-04T03:26:08.023Z,212.00
2019-06-04T03:27:08.024Z,228.00
2019-06-04T03:28:08.026Z,236.00
2019-06-04T03:29:08.024Z,248.00
2019-06-04T03:30:08.028Z,260.00
2019-06-04T03:31:08.256Z,272.00
2019-06-04T03:32:08.034Z,284.00
2019-06-04T03:33:08.028Z,296.00
2019-06-04T03:34:08.025Z,312.00
2019-06-04T03:35:08.023Z,324.00
2019-06-04T03:36:08.026Z,340.00
2019-06-04T03:37:08.023Z,348.00
2019-06-04T03:38:08.027Z,364.00
2019-06-04T03:39:08.028Z,384.00
2019-06-04T03:40:08.023Z,400.00
2019-06-04T03:41:08.022Z,420.00
2019-06-04T03:42:08.023Z,432.00
2019-06-04T03:43:08.029Z,448.00
2019-06-04T03:44:08.024Z,464.00
2019-06-04T03:45:08.038Z,480.00
2019-06-04T03:46:08.025Z,492.00
2019-06-04T03:47:08.029Z,512.00
2019-06-04T03:48:08.027Z,528.00
2019-06-04T03:49:08.025Z,548.00
2019-06-04T03:50:08.033Z,568.00
2019-06-04T03:51:08.023Z,584.00
2019-06-04T03:52:08.024Z,604.00
2019-06-04T03:53:08.027Z,624.00
2019-06-04T03:54:08.029Z,640.00
2019-06-04T03:55:08.023Z,652.00
2019-06-04T03:56:08.025Z,660.00
2019-06-04T03:57:08.023Z,676.00
2019-06-04T03:58:08.025Z,692.00
2019-06-04T03:59:08.022Z,716.00
2019-06-04T04:00:08.027Z,736.00
2019-06-04T04:01:08.026Z,756.00
2019-06-04T04:02:08.637Z,776.00
2019-06-04T04:03:08.027Z,796.00
2019-06-04T04:04:08.589Z,808.00
2019-06-04T04:05:08.091Z,828.00
2019-06-04T04:06:08.025Z,852.00
2019-06-04T04:07:08.023Z,876.00
2019-06-04T04:08:08.095Z,900.00
2019-06-04T04:09:08.051Z,920.00
2019-06-04T04:10:08.023Z,940.00
2019-06-04T04:11:08.019Z,960.00
2019-06-04T04:12:08.022Z,980.00
2019-06-04T04:13:08.027Z,1004.00
2019-06-04T04:14:08.023Z,1016.00
2019-06-04T04:15:08.021Z,1032.00
2019-06-04T04:16:08.023Z,1048.00
2019-06-04T04:17:08.027Z,1072.00
2019-06-04T04:18:08.024Z,1092.00
2019-06-04T04:19:08.030Z,1112.00
2019-06-04T04:20:08.026Z,1132.00
2019-06-04T04:21:08.023Z,1152.00
2019-06-04T04:22:08.024Z,1180.00
2019-06-04T04:23:08.030Z,1208.00
2019-06-04T04:24:08.025Z,1232.00
2019-06-04T04:25:08.025Z,1252.00
2019-06-04T04:26:08.026Z,1280.00
2019-06-04T04:27:08.023Z,1308.00
2019-06-04T04:28:08.027Z,1332.00
2019-06-04T04:29:08.023Z,1368.00
2019-06-04T04:30:08.031Z,1368.00
2019-06-04T04:31:08.024Z,1392.00
2019-06-04T04:32:08.029Z,1400.00
2019-06-04T04:33:08.021Z,1448.00
2019-06-04T04:34:24.594Z,1508.00
2019-06-04T04:35:08.027Z,1544.00
2019-06-04T04:36:08.030Z,1576.00
2019-06-04T04:37:08.060Z,1588.00
2019-06-04T04:38:08.028Z,1636.00
2019-06-04T04:39:08.028Z,1672.00
2019-06-04T04:40:08.029Z,1712.00
2019-06-04T04:41:08.031Z,1752.00
2019-06-04T04:42:08.040Z,1800.00
2019-06-04T04:43:08.030Z,1836.00
2019-06-04T04:44:08.031Z,1880.00
2019-06-04T04:45:08.035Z,1912.00
2019-06-04T04:46:08.042Z,1936.00
2019-06-04T04:47:08.032Z,1972.00
2019-06-04T04:48:08.033Z,2020.00
2019-06-04T04:49:08.033Z,2056.00
2019-06-04T04:50:08.098Z,2096.00
2019-06-04T04:51:08.035Z,2132.00
2019-06-04T04:52:08.046Z,2176.00
2019-06-04T04:53:11.715Z,2220.00
2019-06-04T04:54:08.038Z,2264.00
2019-06-04T04:55:08.038Z,2300.00
2019-06-04T04:56:08.040Z,2328.00
2019-06-04T04:57:08.043Z,2356.00
2019-06-04T04:58:08.040Z,2388.00
2019-06-04T04:59:08.043Z,2456.00
2019-06-04T05:00:08.042Z,2536.00
2019-06-04T05:01:08.043Z,2596.00
2019-06-04T05:02:08.044Z,2652.00
2019-06-04T05:03:08.744Z,2704.00
2019-06-04T05:04:08.048Z,2744.00
2019-06-04T05:05:08.045Z,2772.00
2019-06-04T05:06:08.046Z,2820.00
2019-06-04T05:07:08.046Z,2984.00
2019-06-04T05:08:08.050Z,3424.00
2019-06-04T05:09:08.052Z,3532.00
2019-06-04T05:10:08.062Z,3220.00
2019-06-04T05:11:08.052Z,3376.00
2019-06-04T05:12:08.054Z,4228.00
2019-06-04T05:13:08.103Z,4428.00
2019-06-04T05:14:08.059Z,3876.00
2019-06-04T05:15:08.081Z,3748.00
2019-06-04T05:16:08.076Z,3964.00
2019-06-04T05:17:08.062Z,4200.00
2019-06-04T05:18:08.061Z,4100.00
2019-06-04T05:19:08.066Z,3780.00
2019-06-04T05:20:08.066Z,3732.00
2019-06-04T05:21:08.067Z,3784.00
2019-06-04T05:22:08.072Z,3948.00
2019-06-04T05:23:08.072Z,4156.00
2019-06-04T05:24:08.091Z,4488.00
2019-06-04T05:25:08.074Z,4724.00
2019-06-04T05:26:08.078Z,4708.00
2019-06-04T05:27:08.080Z,4360.00
2019-06-04T05:28:08.085Z,4272.00
2019-06-04T05:29:08.141Z,4548.00
2019-06-04T05:30:08.117Z,4696.00
2019-06-04T05:31:08.089Z,4492.00
2019-06-04T05:32:08.092Z,4564.00
2019-06-04T05:33:08.096Z,4928.00
2019-06-04T05:34:08.099Z,5220.00
2019-06-04T05:35:08.108Z,5028.00
2019-06-04T05:36:08.105Z,4768.00
2019-06-04T05:37:08.103Z,4616.00
2019-06-04T05:38:08.110Z,4572.00
2019-06-04T05:39:08.111Z,4628.00
2019-06-04T05:40:08.122Z,4660.00
2019-06-04T05:41:08.120Z,4712.00
2019-06-04T05:42:08.123Z,4712.00
2019-06-04T05:43:08.123Z,4800.00
2019-06-04T05:44:08.126Z,4860.00
2019-06-04T05:45:08.333Z,4900.00
2019-06-04T05:46:08.132Z,4964.00
2019-06-04T05:47:08.135Z,4960.00
2019-06-04T05:48:08.138Z,5020.00
2019-06-04T05:49:08.141Z,5216.00
2019-06-04T05:50:08.143Z,5504.00
2019-06-04T05:51:08.149Z,5520.00
2019-06-04T05:52:08.147Z,5532.00
2019-06-04T05:53:08.150Z,5616.00
2019-06-04T05:54:08.155Z,5640.00
2019-06-04T05:55:08.157Z,5480.00
2019-06-04T05:56:08.163Z,5420.00
2019-06-04T05:57:08.161Z,5568.00
2019-06-04T05:58:08.166Z,5816.00
2019-06-04T05:59:08.170Z,5872.00
2019-06-04T06:00:08.169Z,5776.00
2019-06-04T06:01:08.176Z,5500.00
2019-06-04T06:02:08.183Z,5388.00
2019-06-04T06:03:08.194Z,5396.00
2019-06-04T06:04:08.196Z,5400.00
2019-06-04T06:05:23.262Z,5424.00
2019-06-04T06:06:08.189Z,5440.00
2019-06-04T06:07:09.362Z,5460.00
2019-06-04T06:08:09.342Z,5488.00
2019-06-04T06:09:08.200Z,5516.00
2019-06-04T06:10:08.209Z,5564.00
2019-06-04T06:11:08.229Z,5684.00
2019-06-04T06:12:08.214Z,5752.00
2019-06-04T06:13:08.210Z,5740.00
2019-06-04T06:14:08.238Z,5620.00
2019-06-04T06:15:09.825Z,5572.00
2019-06-04T06:16:08.223Z,5576.00
2019-06-04T06:17:08.228Z,5556.00
2019-06-04T06:18:08.230Z,5512.00
2019-06-04T06:19:08.247Z,5528.00
2019-06-04T06:20:08.236Z,5528.00
2019-06-04T06:21:08.957Z,5552.00
2019-06-04T06:22:08.243Z,5520.00
2019-06-04T06:23:11.325Z,5516.00
2019-06-04T06:24:08.252Z,5532.00
2019-06-04T06:25:08.254Z,5460.00
2019-06-04T06:26:08.265Z,5488.00
2019-06-04T06:27:08.262Z,5656.00
2019-06-04T06:28:08.301Z,5484.00
2019-06-04T06:29:08.265Z,5396.00
2019-06-04T06:30:08.273Z,5444.00
2019-06-04T06:31:08.271Z,5440.00
2019-06-04T06:32:08.281Z,5436.00
2019-06-04T06:33:08.281Z,5432.00
2019-06-04T06:34:08.279Z,5432.00
2019-06-04T06:35:08.286Z,5440.00
2019-06-04T06:36:08.651Z,5404.00
2019-06-04T06:37:08.299Z,5368.00
2019-06-04T06:38:08.301Z,5360.00
2019-06-04T06:39:08.298Z,5344.00
2019-06-04T06:40:08.302Z,5340.00
2019-06-04T06:41:08.306Z,5316.00
2019-06-04T06:42:08.311Z,5296.00
2019-06-04T06:43:08.313Z,5248.00
2019-06-04T06:44:08.318Z,5252.00
2019-06-04T06:45:08.327Z,5216.00
2019-06-04T06:46:08.324Z,5180.00
2019-06-04T06:47:08.326Z,5152.00
2019-06-04T06:48:08.334Z,5104.00
2019-06-04T06:49:08.334Z,5080.00
2019-06-04T06:50:08.334Z,5036.00
2019-06-04T06:51:08.341Z,4804.00
2019-06-04T06:52:08.526Z,4856.00
2019-06-04T06:53:08.348Z,4832.00
2019-06-04T06:54:08.351Z,4740.00
2019-06-04T06:55:08.354Z,4600.00
2019-06-04T06:56:08.356Z,4448.00
2019-06-04T06:57:08.361Z,4116.00
2019-06-04T06:58:08.367Z,4328.00
2019-06-04T06:59:08.363Z,4396.00
2019-06-04T07:00:08.373Z,3448.00
2019-06-04T07:01:08.372Z,3240.00
2019-06-04T07:02:23.905Z,3052.00
2019-06-04T07:03:08.381Z,2996.00
2019-06-04T07:04:08.391Z,2884.00
2019-06-04T07:05:08.383Z,2776.00
2019-06-04T07:06:08.396Z,2680.00
2019-06-04T07:07:12.385Z,2520.00
2019-06-04T07:08:08.395Z,2432.00
2019-06-04T07:09:08.400Z,2356.00
2019-06-04T07:10:08.407Z,2252.00
2019-06-04T07:11:10.405Z,2184.00
2019-06-04T07:12:08.414Z,2148.00
2019-06-04T07:13:08.411Z,2136.00
2019-06-04T07:14:08.417Z,2128.00
2019-06-04T07:15:08.428Z,2116.00
2019-06-04T07:16:08.441Z,2104.00
2019-06-04T07:17:08.428Z,2092.00
2019-06-04T07:18:08.429Z,2088.00
2019-06-04T07:19:08.430Z,2068.00
2019-06-04T07:20:09.896Z,2056.00
2019-06-04T07:21:08.437Z,2044.00
2019-06-04T07:22:08.442Z,2036.00
2019-06-04T07:23:08.447Z,2032.00
2019-06-04T07:24:08.448Z,2032.00
2019-06-04T07:25:09.226Z,2032.00
2019-06-04T07:26:08.457Z,2032.00
2019-06-04T07:27:08.480Z,2032.00
2019-06-04T07:28:08.470Z,2032.00
2019-06-04T07:29:08.464Z,2044.00
2019-06-04T07:30:08.467Z,2032.00
2019-06-04T07:31:08.476Z,2040.00
2019-06-04T07:32:08.472Z,2024.00
2019-06-04T07:33:08.517Z,2020.00
2019-06-04T07:34:08.481Z,2020.00
2019-06-04T07:35:08.506Z,2020.00
2019-06-04T07:36:22.729Z,2012.00
2019-06-04T07:37:08.492Z,2008.00
2019-06-04T07:38:09.451Z,2032.00
2019-06-04T07:39:08.495Z,1988.00
2019-06-04T07:40:08.769Z,1968.00
2019-06-04T07:41:08.505Z,1956.00
2019-06-04T07:42:08.512Z,1956.00
2019-06-04T07:43:08.520Z,1952.00
2019-06-04T07:44:08.509Z,1956.00
2019-06-04T07:45:08.521Z,1964.00
2019-06-04T07:46:08.515Z,1960.00
2019-06-04T07:47:08.521Z,1952.00
2019-06-04T07:48:08.534Z,1924.00
2019-06-04T07:49:08.526Z,1932.00
2019-06-04T07:50:08.530Z,1924.00
2019-06-04T07:51:08.571Z,1916.00
2019-06-04T07:52:09.861Z,1920.00
2019-06-04T07:53:08.542Z,1900.00
2019-06-04T07:54:08.719Z,1912.00
2019-06-04T07:55:08.544Z,1904.00
2019-06-04T07:56:08.548Z,1988.00
2019-06-04T07:57:08.550Z,1920.00
2019-06-04T07:58:08.554Z,1916.00
2019-06-04T07:59:08.555Z,1916.00
2019-06-04T08:00:08.562Z,1924.00
2019-06-04T08:01:08.561Z,1920.00
2019-06-04T08:02:08.838Z,1928.00
2019-06-04T08:03:08.573Z,1940.00
2019-06-04T08:04:08.580Z,1948.00
2019-06-04T08:05:08.586Z,1960.00
2019-06-04T08:06:08.579Z,1964.00
2019-06-04T08:07:09.920Z,1980.00
2019-06-04T08:08:08.585Z,1976.00
2019-06-04T08:09:08.591Z,1988.00
2019-06-04T08:10:08.598Z,1996.00
2019-06-04T08:11:08.596Z,2028.00
2019-06-04T08:12:08.596Z,2040.00
2019-06-04T08:13:08.602Z,2048.00
2019-06-04T08:14:08.608Z,2064.00
2019-06-04T08:15:08.610Z,2084.00
2019-06-04T08:16:08.614Z,2092.00
2019-06-04T08:17:08.614Z,2108.00
2019-06-04T08:18:08.624Z,2096.00
2019-06-04T08:19:08.621Z,2156.00
2019-06-04T08:20:08.628Z,2180.00
2019-06-04T08:21:08.630Z,2204.00
2019-06-04T08:22:08.633Z,2224.00
2019-06-04T08:23:08.632Z,2244.00
2019-06-04T08:24:08.640Z,2268.00
2019-06-04T08:25:08.643Z,2296.00
2019-06-04T08:26:08.649Z,2320.00
2019-06-04T08:27:08.642Z,2356.00
2019-06-04T08:28:08.652Z,2404.00
2019-06-04T08:29:08.662Z,2456.00
2019-06-04T08:30:08.669Z,2656.00
2019-06-04T08:31:08.661Z,2984.00
2019-06-04T08:32:08.666Z,3176.00
2019-06-04T08:33:08.670Z,3360.00
2019-06-04T08:34:08.683Z,3728.00
2019-06-04T08:35:08.677Z,3800.00
2019-06-04T08:36:08.693Z,3852.00
2019-06-04T08:37:08.689Z,3880.00
2019-06-04T08:38:08.692Z,3900.00
2019-06-04T08:39:08.700Z,3956.00
2019-06-04T08:40:08.698Z,3968.00
2019-06-04T08:41:08.708Z,3980.00
2019-06-04T08:42:08.711Z,3940.00
2019-06-04T08:43:08.714Z,4188.00
2019-06-04T08:44:08.724Z,4164.00
2019-06-04T08:45:09.346Z,4036.00
2019-06-04T08:46:08.740Z,4036.00
2019-06-04T08:47:08.836Z,4044.00
2019-06-04T08:48:08.740Z,4028.00
2019-06-04T08:49:08.755Z,4064.00
2019-06-04T08:50:08.753Z,4088.00
2019-06-04T08:51:08.760Z,4076.00
2019-06-04T08:52:08.767Z,4080.00
2019-06-04T08:53:11.088Z,4068.00
2019-06-04T08:54:08.780Z,4468.00
2019-06-04T08:55:08.788Z,4092.00
2019-06-04T08:56:08.789Z,4100.00
2019-06-04T08:57:09.004Z,4096.00
2019-06-04T08:58:08.808Z,4092.00
2019-06-04T08:59:08.812Z,4092.00
2019-06-04T09:00:08.817Z,4092.00
2019-06-04T09:01:08.830Z,4296.00
2019-06-04T09:02:08.834Z,4084.00
2019-06-04T09:03:08.844Z,4108.00
2019-06-04T09:04:08.851Z,4116.00
2019-06-04T09:05:08.860Z,4476.00
2019-06-04T09:06:08.868Z,4828.00
2019-06-04T09:07:25.219Z,4156.00
2019-06-04T09:08:08.886Z,4172.00
2019-06-04T09:09:08.893Z,4316.00
2019-06-04T09:10:08.903Z,4280.00
2019-06-04T09:11:08.908Z,4360.00
2019-06-04T09:12:08.920Z,4396.00
2019-06-04T09:13:08.968Z,4424.00
2019-06-04T09:14:08.949Z,4464.00
2019-06-04T09:15:08.943Z,4496.00
2019-06-04T09:16:08.952Z,4544.00
2019-06-04T09:17:08.975Z,4560.00
2019-06-04T09:18:08.970Z,4616.00
2019-06-04T09:19:08.976Z,4632.00
2019-06-04T09:20:08.985Z,4656.00
2019-06-04T09:21:09.001Z,4620.00
2019-06-04T09:22:09.002Z,4664.00
2019-06-04T09:23:09.049Z,4684.00
2019-06-04T09:24:09.024Z,4732.00
2019-06-04T09:25:09.033Z,4776.00
2019-06-04T09:26:09.042Z,4804.00
2019-06-04T09:27:09.047Z,4832.00
2019-06-04T09:28:09.065Z,4856.00
2019-06-04T09:29:09.076Z,4988.00
2019-06-04T09:30:09.108Z,4956.00
2019-06-04T09:31:09.086Z,4980.00
2019-06-04T09:32:09.104Z,5020.00
2019-06-04T09:33:09.113Z,5092.00
2019-06-04T09:34:09.138Z,5112.00
2019-06-04T09:35:09.152Z,5148.00
2019-06-04T09:36:09.142Z,5052.00
2019-06-04T09:37:09.275Z,5200.00
2019-06-04T09:38:10.770Z,5172.00
2019-06-04T09:39:09.170Z,5280.00
2019-06-04T09:40:09.182Z,5324.00
2019-06-04T09:41:09.192Z,5332.00
2019-06-04T09:42:09.199Z,5356.00
2019-06-04T09:43:09.208Z,5380.00
2019-06-04T09:44:09.222Z,5412.00
2019-06-04T09:45:09.229Z,5448.00
2019-06-04T09:46:09.246Z,5476.00
2019-06-04T09:47:09.273Z,5504.00
2019-06-04T09:48:09.273Z,5560.00
2019-06-04T09:49:09.273Z,5604.00
2019-06-04T09:50:09.284Z,5608.00
2019-06-04T09:51:09.313Z,5648.00
2019-06-04T09:52:09.306Z,5672.00
2019-06-04T09:53:09.315Z,5716.00
2019-06-04T09:54:09.418Z,5772.00
2019-06-04T09:55:09.371Z,5812.00
2019-06-04T09:56:09.348Z,5840.00
2019-06-04T09:57:09.486Z,5868.00
2019-06-04T09:58:29.285Z,5912.00
2019-06-04T09:59:09.386Z,5956.00
2019-06-04T10:00:09.392Z,5992.00
2019-06-04T10:01:09.416Z,6072.00
2019-06-04T10:02:09.421Z,6128.00
2019-06-04T10:03:09.423Z,6168.00
2019-06-04T10:04:09.444Z,6176.00
2019-06-04T10:05:09.451Z,6204.00
2019-06-04T10:06:09.458Z,6264.00
2019-06-04T10:07:09.552Z,6312.00
2019-06-04T10:08:12.169Z,6348.00
2019-06-04T10:09:09.502Z,6492.00
2019-06-04T10:10:09.520Z,6432.00
2019-06-04T10:11:09.526Z,6528.00
2019-06-04T10:12:09.622Z,6568.00
2019-06-04T10:13:09.538Z,6764.00
2019-06-04T10:14:09.565Z,6688.00
2019-06-04T10:15:09.564Z,6844.00
2019-06-04T10:16:09.626Z,6852.00
2019-06-04T10:17:09.586Z,6936.00
2019-06-04T10:18:09.599Z,7108.00
2019-06-04T10:19:09.612Z,7452.00
2019-06-04T10:20:09.652Z,7900.00
2019-06-04T10:21:09.637Z,8536.00
2019-06-04T10:22:09.657Z,9728.00
2019-06-04T10:23:10.235Z,10480.00
2019-06-04T10:24:11.441Z,10780.00
2019-06-04T10:25:09.687Z,11484.00
2019-06-04T10:26:23.794Z,11716.00
2019-06-04T10:27:09.863Z,12492.00
2019-06-04T10:28:09.727Z,12996.00
2019-06-04T10:29:10.013Z,13716.00
2019-06-04T10:30:09.748Z,14296.00
2019-06-04T10:31:09.773Z,15332.00
2019-06-04T10:32:09.900Z,15744.00
2019-06-04T10:33:14.081Z,15392.00
2019-06-04T10:34:11.533Z,16480.00
2019-06-04T10:35:09.829Z,17984.00
2019-06-04T10:36:09.832Z,18112.00
2019-06-04T10:37:20.305Z,17728.00
2019-06-04T10:38:26.277Z,17536.00
2019-06-04T10:39:10.064Z,16416.00
2019-06-04T10:40:10.514Z,16576.00
2019-06-04T10:41:09.905Z,17824.00
2019-06-04T10:43:24.188Z,17504.00
2019-06-04T10:44:24.663Z,17888.00
2019-06-04T10:46:20.783Z,15904.00
2019-06-04T10:47:20.011Z,17056.00
2019-06-04T10:49:15.303Z,19072.00
2019-06-04T10:50:15.430Z,19648.00
2019-06-04T10:52:09.112Z,19072.00
2019-06-04T10:53:09.661Z,18624.00
2019-06-04T10:55:05.047Z,21152.00
2019-06-04T10:56:04.808Z,19936.00
2019-06-04T10:58:00.354Z,22816.00
2019-06-04T10:59:00.372Z,24256.00
2019-06-04T11:00:56.853Z,24800.00
2019-06-04T11:01:56.165Z,25664.00
2019-06-04T11:03:51.192Z,25952.00
2019-06-04T11:04:50.035Z,26240.00
2019-06-04T11:06:43.808Z,27584.00
2019-06-04T11:07:43.689Z,29632.00
2019-06-04T11:09:37.527Z,28608.00
2019-06-04T11:10:37.323Z,29920.00
2019-06-04T11:12:32.686Z,28160.00
2019-06-04T11:13:32.148Z,26720.00
2019-06-04T11:15:26.743Z,27968.00
2019-06-04T11:16:26.604Z,28736.00
2019-06-04T11:18:20.280Z,26688.00
2019-06-04T11:19:20.714Z,6016.00
2019-06-04T11:21:14.418Z,27872.00
2019-06-04T11:22:14.136Z,29312.00
2019-06-04T11:24:10.879Z,31712.00
2019-06-04T11:25:10.669Z,29024.00
2019-06-04T11:26:10.927Z,30688.00
2019-06-04T11:27:10.692Z,32192.00
2019-06-04T11:28:11.050Z,33216.00
2019-06-04T11:29:11.799Z,31648.00
2019-06-04T11:30:10.850Z,30432.00
2019-06-04T11:31:10.765Z,30880.00
2019-06-04T11:32:11.010Z,32032.00
2019-06-04T11:33:10.980Z,32256.00
2019-06-04T11:34:25.803Z,32864.00
2019-06-04T11:35:11.211Z,33216.00
2019-06-04T11:36:11.022Z,32256.00
2019-06-04T11:37:10.878Z,31264.00
2019-06-04T11:38:10.849Z,32832.00
2019-06-04T11:39:18.532Z,35456.00
2019-06-04T11:40:10.952Z,36096.00
2019-06-04T11:41:10.916Z,36704.00
2019-06-04T11:42:11.023Z,38336.00
2019-06-04T11:43:12.433Z,38528.00
2019-06-04T11:44:10.974Z,35712.00
2019-06-04T11:45:23.601Z,34208.00
2019-06-04T11:46:11.171Z,35872.00
2019-06-04T11:47:10.981Z,37760.00
2019-06-04T11:48:11.116Z,37536.00
2019-06-04T11:49:11.106Z,38656.00
2019-06-04T11:50:11.047Z,41760.00
2019-06-04T11:51:11.052Z,43392.00
2019-06-04T11:52:11.086Z,41120.00
2019-06-04T11:53:11.135Z,38048.00
2019-06-04T11:54:11.120Z,38048.00
2019-06-04T11:55:11.133Z,40320.00
2019-06-04T11:56:11.225Z,40960.00
2019-06-04T11:57:12.265Z,40640.00
2019-06-04T11:58:11.198Z,40896.00
2019-06-04T11:59:11.191Z,40992.00
2019-06-04T12:00:11.414Z,40192.00
2019-06-04T12:01:17.925Z,40288.00
2019-06-04T12:02:11.285Z,40640.00
2019-06-04T12:03:12.117Z,39936.00
2019-06-04T12:04:11.257Z,37216.00
2019-06-04T12:05:11.279Z,36512.00
2019-06-04T12:06:11.302Z,38944.00
2019-06-04T12:07:12.207Z,41632.00
2019-06-04T12:08:12.712Z,43520.00
2019-06-04T12:09:29.658Z,45120.00
2019-06-04T12:10:19.456Z,45856.00
2019-06-04T12:12:41.341Z,46400.00
2019-06-04T12:13:06.705Z,46816.00
2019-06-04T12:15:02.021Z,51136.00
2019-06-04T12:16:02.123Z,51808.00
2019-06-04T12:17:56.100Z,45600.00
2019-06-04T12:18:56.021Z,43904.00
2019-06-04T12:20:49.749Z,44608.00
2019-06-04T12:21:49.644Z,41248.00
2019-06-04T12:23:44.369Z,40320.00
2019-06-04T12:24:44.390Z,44896.00
2019-06-04T12:26:39.241Z,37568.00
2019-06-04T12:27:38.756Z,35680.00
2019-06-04T12:29:33.526Z,49920.00
2019-06-04T12:30:33.371Z,50464.00
2019-06-04T12:32:28.167Z,48576.00
2019-06-04T12:33:27.976Z,51552.00
2019-06-04T12:35:22.559Z,47520.00
2019-06-04T12:36:22.565Z,44128.00
2019-06-04T12:38:17.768Z,45824.00
2019-06-04T12:39:17.253Z,44960.00
2019-06-04T12:41:15.685Z,43296.00
2019-06-04T12:42:15.735Z,47360.00
2019-06-04T12:43:17.265Z,53152.00
2019-06-04T12:44:15.787Z,56928.00